Time;durP1;ratioP1;P1;durP2;ratioP2;P2;SDS_P1;SDS_P2;PMS_P1;PMS_P2;Temp;Humidity;BMP_temperature;BMP_pressure;BME280_temperature;BME280_humidity;BME280_pressure;Samples;Min_cycle;Max_cycle;Signal;HPM_P1;HPM_P2
2023/06/18 00:00:09;;;;;;;18.60;16.15;;;15.50;99.90;;;;;;5070089;28;20045;-50
2023/06/18 00:02:36;;;;;;;19.70;16.05;;;15.50;99.90;;;;;;5078662;28;20024;-46
2023/06/18 00:05:02;;;;;;;19.90;16.00;;;15.50;99.90;;;;;;5070008;28;20020;-50
2023/06/18 00:07:30;;;;;;;20.70;16.45;;;15.50;99.90;;;;;;5068977;28;20337;-50
2023/06/18 00:09:57;;;;;;;21.88;16.98;;;15.40;99.90;;;;;;5081554;28;20031;-49
2023/06/18 00:12:23;;;;;;;18.77;15.85;;;15.50;99.90;;;;;;5073220;28;20020;-49
2023/06/18 00:14:49;;;;;;;20.33;15.73;;;15.50;99.90;;;;;;5081529;28;20027;-49
2023/06/18 00:17:15;;;;;;;18.88;15.40;;;15.50;99.90;;;;;;5088440;28;20081;-49
2023/06/18 00:19:40;;;;;;;19.20;13.48;;;15.50;99.90;;;;;;5069186;28;20025;-47
2023/06/18 00:22:06;;;;;;;17.88;15.48;;;15.40;99.90;;;;;;5083806;28;20020;-46
2023/06/18 00:24:31;;;;;;;20.60;15.95;;;15.30;99.90;;;;;;5087986;28;20106;-47
2023/06/18 00:26:57;;;;;;;19.52;15.23;;;15.20;99.90;;;;;;5069037;28;20026;-49
2023/06/18 00:29:23;;;;;;;20.33;15.98;;;15.10;99.90;;;;;;5069412;28;20025;-49
2023/06/18 00:31:49;;;;;;;22.65;16.88;;;15.10;99.90;;;;;;5070406;28;20017;-52
2023/06/18 00:34:15;;;;;;;19.70;16.38;;;15.20;99.90;;;;;;5068268;28;20024;-50
2023/06/18 00:36:43;;;;;;;21.25;16.20;;;15.20;99.90;;;;;;5069025;28;20056;-47
2023/06/18 00:39:09;;;;;;;22.80;16.15;;;15.10;99.90;;;;;;5069306;28;20040;-48
2023/06/18 00:41:35;;;;;;;18.63;16.38;;;15.20;99.90;;;;;;5071033;28;20043;-46
2023/06/18 00:44:01;;;;;;;19.42;15.45;;;15.10;99.90;;;;;;5075529;28;20017;-48
2023/06/18 00:46:30;;;;;;;20.58;17.20;;;15.10;99.90;;;;;;5085571;28;20046;-47
2023/06/18 00:48:57;;;;;;;20.80;15.60;;;15.00;99.90;;;;;;5076005;28;20115;-45
2023/06/18 00:51:26;;;;;;;20.65;16.40;;;14.90;99.90;;;;;;5068635;28;20413;-45
2023/06/18 00:53:52;;;;;;;19.90;15.82;;;14.90;99.90;;;;;;5066708;28;20660;-46
2023/06/18 00:56:18;;;;;;;19.65;15.82;;;14.80;99.90;;;;;;5068360;28;20024;-45
2023/06/18 00:58:47;;;;;;;20.15;16.13;;;14.70;99.90;;;;;;5059193;28;20374;-46
2023/06/18 01:01:14;;;;;;;19.17;15.82;;;14.60;99.90;;;;;;5068705;28;20095;-47
2023/06/18 01:03:41;;;;;;;19.65;15.20;;;14.60;99.90;;;;;;5076059;28;20032;-46
2023/06/18 01:06:34;;;;;;;22.15;17.50;;;14.60;99.90;;;;;;5068272;28;20028;-47
2023/06/18 01:09:01;;;;;;;22.15;16.55;;;14.70;99.90;;;;;;5057022;28;20044;-47
2023/06/18 01:11:28;;;;;;;21.55;17.73;;;14.60;99.90;;;;;;5068484;28;20016;-45
2023/06/18 01:13:54;;;;;;;24.13;16.98;;;14.70;99.90;;;;;;5068998;28;20495;-45
2023/06/18 01:16:24;;;;;;;24.00;17.73;;;14.70;99.90;;;;;;5084201;28;20493;-54
2023/06/18 01:18:50;;;;;;;22.15;18.20;;;14.70;99.90;;;;;;5077563;28;20099;-46
2023/06/18 01:21:19;;;;;;;22.58;17.60;;;14.70;99.90;;;;;;5084124;28;20035;-50
2023/06/18 01:24:08;;;;;;;20.38;16.63;;;14.80;99.90;;;;;;5068057;28;20035;-49
2023/06/18 01:26:44;;;;;;;19.85;16.42;;;14.70;99.90;;;;;;5064040;28;20032;-48
2023/06/18 01:29:12;;;;;;;21.85;16.33;;;14.60;99.90;;;;;;5068388;28;20029;-47
2023/06/18 01:31:38;;;;;;;25.02;17.83;;;14.60;99.90;;;;;;5067950;28;20071;-48
2023/06/18 01:34:04;;;;;;;24.50;18.48;;;14.60;99.90;;;;;;5067726;28;20017;-47
2023/06/18 01:36:37;;;;;;;22.20;17.45;;;14.50;99.90;;;;;;5067763;28;20025;-50
2023/06/18 01:39:25;;;;;;;24.55;18.23;;;14.50;99.90;;;;;;5067394;28;20023;-48
2023/06/18 01:41:55;;;;;;;23.30;17.10;;;14.50;99.90;;;;;;5060611;28;20036;-50
2023/06/18 01:44:24;;;;;;;19.75;15.88;;;14.50;99.90;;;;;;5067085;28;20069;-48
2023/06/18 01:46:53;;;;;;;21.75;17.13;;;14.40;99.90;;;;;;5087561;28;20028;-47
2023/06/18 01:49:24;;;;;;;20.10;16.33;;;14.30;99.90;;;;;;5079640;28;20032;-49
2023/06/18 01:51:54;;;;;;;22.02;17.67;;;14.20;99.90;;;;;;5066952;28;20404;-50
2023/06/18 01:54:21;;;;;;;;;;;14.20;99.90;;;;;;5069031;28;20008;-50
2023/06/18 01:56:49;;;;;;;21.20;17.05;;;14.20;99.90;;;;;;5067317;28;20088;-50
2023/06/18 01:59:17;;;;;;;21.17;17.38;;;14.10;99.90;;;;;;5067753;28;20016;-49
2023/06/18 02:01:43;;;;;;;23.33;16.83;;;14.10;99.90;;;;;;5074987;28;20446;-50
2023/06/18 02:04:12;;;;;;;24.58;18.77;;;14.10;99.90;;;;;;5074271;28;20112;-47
2023/06/18 02:06:40;;;;;;;21.83;17.42;;;14.10;99.90;;;;;;5087862;28;20035;-50
2023/06/18 02:09:07;;;;;;;20.65;17.42;;;14.00;99.90;;;;;;5074497;28;20453;-49
2023/06/18 02:11:32;;;;;;;23.65;18.02;;;14.10;99.90;;;;;;5066378;28;20185;-47
2023/06/18 02:13:59;;;;;;;24.65;18.95;;;14.10;99.90;;;;;;5067884;28;20103;-50
2023/06/18 02:16:28;;;;;;;22.15;16.80;;;14.00;99.90;;;;;;5084402;28;20023;-50
2023/06/18 02:18:57;;;;;;;21.75;17.10;;;14.10;99.90;;;;;;5083160;28;20021;-52
2023/06/18 02:21:22;;;;;;;24.92;18.35;;;14.10;99.90;;;;;;5067621;28;20112;-46
2023/06/18 02:23:47;;;;;;;24.63;19.00;;;14.10;99.90;;;;;;5067702;28;20501;-49
2023/06/18 02:26:13;;;;;;;24.52;18.75;;;14.10;99.90;;;;;;5066309;28;20039;-47
2023/06/18 02:28:39;;;;;;;26.05;21.27;;;14.10;99.90;;;;;;5085779;28;20024;-48
2023/06/18 02:31:06;;;;;;;28.05;20.50;;;14.10;99.90;;;;;;5074524;28;20005;-48
2023/06/18 02:33:32;;;;;;;24.90;18.30;;;14.10;99.90;;;;;;5067698;28;20062;-48
2023/06/18 02:35:57;;;;;;;21.35;16.73;;;14.10;99.90;;;;;;5075575;28;20017;-45
2023/06/18 02:38:23;;;;;;;22.77;16.92;;;14.00;99.90;;;;;;5067697;28;20256;-48
2023/06/18 02:40:49;;;;;;;25.33;19.00;;;13.90;99.90;;;;;;5075648;28;20048;-45
2023/06/18 02:43:14;;;;;;;26.63;19.05;;;13.90;99.90;;;;;;5067716;28;20030;-47
2023/06/18 02:45:40;;;;;;;24.92;19.50;;;13.90;99.90;;;;;;5069452;28;20081;-46
2023/06/18 02:48:06;;;;;;;25.50;21.05;;;13.90;99.90;;;;;;5071146;28;20021;-46
2023/06/18 02:50:31;;;;;;;27.23;20.55;;;13.90;99.90;;;;;;5078253;28;20048;-47
2023/06/18 02:52:57;;;;;;;30.48;22.30;;;13.90;99.90;;;;;;5075244;28;20047;-45
2023/06/18 02:55:23;;;;;;;27.15;20.95;;;13.90;99.90;;;;;;5083559;28;20013;-46
2023/06/18 02:57:50;;;;;;;24.63;20.42;;;13.90;99.90;;;;;;5085562;28;20085;-47
2023/06/18 03:00:16;;;;;;;26.67;19.67;;;14.00;99.90;;;;;;5085024;28;20088;-47
2023/06/18 03:02:42;;;;;;;24.30;19.65;;;14.00;99.90;;;;;;5089790;28;20020;-49
2023/06/18 03:05:09;;;;;;;23.55;19.17;;;13.90;99.90;;;;;;5091498;28;20055;-49
2023/06/18 03:07:35;;;;;;;22.00;18.77;;;13.80;99.90;;;;;;5073440;28;20028;-50
2023/06/18 03:10:01;;;;;;;25.42;18.85;;;13.80;99.90;;;;;;5070589;28;20013;-48
2023/06/18 03:12:28;;;;;;;22.70;18.65;;;13.80;99.90;;;;;;5070931;28;20028;-46
2023/06/18 03:14:54;;;;;;;24.25;19.80;;;13.70;99.90;;;;;;5069380;28;20024;-46
2023/06/18 03:17:19;;;;;;;22.45;18.48;;;13.70;99.90;;;;;;5070340;28;20406;-48
2023/06/18 03:19:45;;;;;;;25.70;18.70;;;13.70;99.90;;;;;;5070551;28;20105;-49
2023/06/18 03:22:11;;;;;;;21.58;17.67;;;13.70;99.90;;;;;;5070743;28;20078;-50
2023/06/18 03:24:40;;;;;;;23.00;18.38;;;13.70;99.90;;;;;;5070890;28;20475;-50
2023/06/18 03:27:07;;;;;;;22.88;17.75;;;13.70;99.90;;;;;;5076000;28;20024;-51
2023/06/18 03:29:36;;;;;;;24.52;20.00;;;13.70;99.90;;;;;;5081242;28;20058;-50
2023/06/18 03:32:02;;;;;;;21.65;17.85;;;13.70;99.90;;;;;;5083631;28;20043;-51
2023/06/18 03:34:29;;;;;;;23.67;19.00;;;13.80;99.90;;;;;;5078642;28;20107;-50
2023/06/18 03:36:55;;;;;;;21.92;17.65;;;13.70;99.90;;;;;;5090183;28;20219;-50
2023/06/18 03:39:24;;;;;;;25.30;19.63;;;13.70;99.90;;;;;;5076840;28;20111;-51
2023/06/18 03:41:50;;;;;;;22.20;18.05;;;13.80;99.90;;;;;;5086463;28;20475;-52
2023/06/18 03:44:16;;;;;;;25.15;20.20;;;13.80;99.90;;;;;;5085321;28;20028;-49
2023/06/18 03:46:42;;;;;;;28.52;21.67;;;13.90;99.90;;;;;;5070628;28;20393;-49
2023/06/18 03:49:08;;;;;;;26.52;20.95;;;13.90;99.90;;;;;;5070387;28;20074;-46
2023/06/18 03:51:33;;;;;;;24.73;20.27;;;14.00;99.90;;;;;;5076849;28;20012;-46
2023/06/18 03:53:59;;;;;;;25.35;20.30;;;14.00;99.90;;;;;;5085223;28;20026;-46
2023/06/18 03:56:25;;;;;;;23.10;18.17;;;14.00;99.90;;;;;;5072652;28;20040;-49
2023/06/18 03:58:51;;;;;;;25.83;19.95;;;14.10;99.90;;;;;;5087930;28;20032;-47
2023/06/18 04:01:16;;;;;;;24.33;18.30;;;14.10;99.90;;;;;;5074559;28;20522;-48
2023/06/18 04:03:42;;;;;;;22.80;18.13;;;14.10;99.90;;;;;;5070191;28;20473;-49
2023/06/18 04:06:11;;;;;;;19.67;16.70;;;14.10;99.90;;;;;;5080811;28;20512;-47
2023/06/18 04:08:37;;;;;;;26.13;18.95;;;14.20;99.90;;;;;;5079488;28;20161;-50
2023/06/18 04:11:02;;;;;;;22.00;17.67;;;14.20;99.90;;;;;;5069760;28;20016;-48
2023/06/18 04:13:28;;;;;;;23.15;17.83;;;14.30;99.90;;;;;;5069758;28;20278;-46
2023/06/18 04:15:54;;;;;;;26.60;18.50;;;14.30;99.90;;;;;;5072469;28;20020;-49
2023/06/18 04:18:20;;;;;;;26.25;19.52;;;14.40;99.90;;;;;;5074926;28;20466;-50
2023/06/18 04:20:46;;;;;;;22.83;18.70;;;14.50;99.90;;;;;;5077860;28;20331;-50
2023/06/18 04:23:13;;;;;;;24.05;19.83;;;14.50;99.90;;;;;;5069748;28;20029;-50
2023/06/18 04:25:39;;;;;;;28.42;21.85;;;14.60;99.90;;;;;;5078963;28;20249;-50
2023/06/18 04:28:05;;;;;;;27.17;19.75;;;14.60;99.90;;;;;;5082289;28;20474;-49
2023/06/18 04:30:31;;;;;;;23.50;19.30;;;14.60;99.90;;;;;;5080576;28;20033;-49
2023/06/18 04:32:57;;;;;;;25.05;19.58;;;14.70;99.90;;;;;;5067991;28;20016;-49
2023/06/18 04:35:23;;;;;;;22.30;17.90;;;14.70;99.90;;;;;;5069176;28;20027;-45
2023/06/18 04:37:49;;;;;;;22.50;17.67;;;14.80;99.90;;;;;;5067872;28;20553;-46
2023/06/18 04:40:15;;;;;;;20.15;17.50;;;14.80;99.90;;;;;;5074986;28;20024;-46
2023/06/18 04:42:41;;;;;;;21.73;16.98;;;14.80;99.90;;;;;;5072391;28;20075;-48
2023/06/18 04:45:09;;;;;;;23.75;17.30;;;14.90;99.90;;;;;;5067331;28;20028;-49
2023/06/18 04:47:38;;;;;;;18.52;16.00;;;14.90;99.90;;;;;;5068232;28;20448;-49
2023/06/18 04:50:05;;;;;;;17.70;14.75;;;14.90;99.90;;;;;;5070629;28;20035;-49
2023/06/18 04:52:31;;;;;;;19.45;16.23;;;15.00;99.90;;;;;;5070793;28;20070;-49
2023/06/18 04:54:57;;;;;;;21.60;16.70;;;15.10;99.90;;;;;;5071293;28;20017;-49
2023/06/18 04:57:23;;;;;;;20.08;17.30;;;15.10;99.90;;;;;;5068550;28;20017;-49
2023/06/18 04:59:50;;;;;;;20.50;16.88;;;15.20;99.90;;;;;;5075690;28;20031;-50
2023/06/18 05:02:17;;;;;;;20.00;16.42;;;15.30;99.90;;;;;;5078955;28;20028;-49
2023/06/18 05:04:42;;;;;;;19.08;16.70;;;15.30;99.90;;;;;;5081142;28;20044;-46
2023/06/18 05:07:08;;;;;;;23.23;18.02;;;15.40;99.90;;;;;;5075302;28;20458;-45
2023/06/18 05:09:33;;;;;;;19.83;17.45;;;15.50;99.90;;;;;;5071917;28;20028;-46
2023/06/18 05:11:59;;;;;;;20.85;17.83;;;15.60;99.90;;;;;;5073256;28;20309;-50
2023/06/18 05:14:27;;;;;;;23.67;16.35;;;15.70;99.90;;;;;;5081599;28;20189;-48
2023/06/18 05:16:53;;;;;;;17.23;15.40;;;15.80;99.90;;;;;;5070636;28;20390;-50
2023/06/18 05:19:19;;;;;;;20.15;16.17;;;15.80;99.90;;;;;;5071812;28;20024;-50
2023/06/18 05:21:45;;;;;;;19.17;15.55;;;15.90;99.90;;;;;;5077987;28;20494;-46
2023/06/18 05:24:10;;;;;;;20.23;15.43;;;16.00;99.90;;;;;;5079155;28;20032;-48
2023/06/18 05:26:36;;;;;;;18.35;15.05;;;16.10;99.90;;;;;;5075123;28;20035;-46
2023/06/18 05:29:02;;;;;;;19.05;15.02;;;16.10;99.90;;;;;;5077204;28;20086;-48
2023/06/18 05:31:28;;;;;;;18.27;14.43;;;16.20;99.90;;;;;;5071409;28;20063;-45
2023/06/18 05:33:54;;;;;;;16.52;14.40;;;16.20;99.90;;;;;;5069684;28;20008;-46
2023/06/18 05:36:22;;;;;;;16.95;14.35;;;16.30;99.90;;;;;;5079924;28;20540;-48
2023/06/18 05:38:48;;;;;;;17.08;13.32;;;16.30;99.90;;;;;;5072567;28;20098;-46
2023/06/18 05:41:13;;;;;;;16.33;13.25;;;16.40;99.90;;;;;;5072703;28;20024;-49
2023/06/18 05:43:39;;;;;;;17.52;13.63;;;16.50;99.90;;;;;;5067366;28;20031;-48
2023/06/18 05:46:05;;;;;;;15.25;12.50;;;16.50;99.90;;;;;;5076069;28;20092;-45
2023/06/18 05:48:30;;;;;;;15.15;12.82;;;16.50;99.90;;;;;;5075434;28;20020;-45
2023/06/18 05:50:56;;;;;;;15.02;12.77;;;16.60;99.90;;;;;;5068602;28;20025;-45
2023/06/18 05:53:21;;;;;;;13.98;11.95;;;16.70;99.90;;;;;;5068217;28;20028;-46
2023/06/18 05:55:47;;;;;;;14.13;11.50;;;16.70;99.90;;;;;;5065684;28;20055;-47
2023/06/18 05:58:13;;;;;;;12.13;10.73;;;16.80;99.90;;;;;;5067506;28;20044;-48
2023/06/18 06:00:38;;;;;;;12.95;11.30;;;16.90;99.90;;;;;;5067653;28;20025;-46
2023/06/18 06:03:05;;;;;;;13.10;11.60;;;16.90;99.90;;;;;;5066734;28;20024;-47
2023/06/18 06:05:30;;;;;;;16.50;12.43;;;17.00;99.90;;;;;;5068067;28;20048;-46
2023/06/18 06:07:56;;;;;;;15.32;11.25;;;17.10;99.90;;;;;;5067209;28;20063;-45
2023/06/18 06:10:22;;;;;;;12.98;10.82;;;17.10;99.90;;;;;;5067793;28;20048;-48
2023/06/18 06:12:48;;;;;;;13.40;10.68;;;17.20;99.90;;;;;;5067714;28;20056;-46
2023/06/18 06:15:14;;;;;;;12.07;10.77;;;17.20;99.90;;;;;;5067602;28;20016;-45
2023/06/18 06:17:39;;;;;;;12.80;10.75;;;17.30;99.90;;;;;;5067197;28;20067;-49
2023/06/18 06:20:05;;;;;;;13.60;10.55;;;17.40;99.90;;;;;;5069056;28;20101;-47
2023/06/18 06:22:34;;;;;;;14.07;11.82;;;17.50;99.90;;;;;;5087366;28;20382;-50
2023/06/18 06:25:00;;;;;;;13.82;11.48;;;17.60;99.90;;;;;;5084181;28;20059;-49
2023/06/18 06:27:29;;;;;;;14.30;11.23;;;17.70;99.90;;;;;;5075724;28;20321;-49
2023/06/18 06:29:59;;;;;;;11.98;10.68;;;17.70;99.90;;;;;;5070778;28;20021;-49
2023/06/18 06:32:25;;;;;;;11.93;10.18;;;17.80;99.90;;;;;;5071789;28;20039;-49
2023/06/18 06:34:51;;;;;;;13.52;10.40;;;17.90;99.90;;;;;;5071829;28;20082;-50
2023/06/18 06:37:17;;;;;;;11.40;10.20;;;18.00;99.90;;;;;;5078347;28;20012;-50
2023/06/18 06:39:43;;;;;;;11.68;9.98;;;18.20;99.90;;;;;;5072356;28;20028;-46
2023/06/18 06:42:10;;;;;;;11.52;9.38;;;18.30;99.90;;;;;;5079471;28;20178;-45
2023/06/18 06:44:35;;;;;;;10.27;8.18;;;18.40;99.90;;;;;;5087647;28;20024;-46
2023/06/18 06:47:01;;;;;;;11.13;8.13;;;18.50;99.90;;;;;;5088320;28;20123;-47
2023/06/18 06:49:26;;;;;;;8.95;7.55;;;18.60;99.90;;;;;;5071472;28;20024;-47
2023/06/18 06:51:56;;;;;;;8.02;6.90;;;18.70;99.90;;;;;;5080104;28;20065;-49
2023/06/18 06:54:22;;;;;;;9.75;7.88;;;18.80;99.90;;;;;;5085623;28;20024;-46
2023/06/18 06:56:50;;;;;;;10.00;8.45;;;18.90;99.90;;;;;;5070788;28;20012;-49
2023/06/18 06:59:16;;;;;;;8.95;7.45;;;19.00;99.90;;;;;;5076332;28;20024;-50
2023/06/18 07:01:45;;;;;;;9.30;7.97;;;19.10;99.90;;;;;;5070563;28;20050;-49
2023/06/18 07:04:14;;;;;;;8.70;7.80;;;19.20;99.90;;;;;;5067658;28;20025;-47
2023/06/18 07:06:39;;;;;;;8.90;7.80;;;19.40;99.90;;;;;;5084344;28;20081;-48
2023/06/18 07:09:06;;;;;;;8.85;7.35;;;19.50;99.90;;;;;;5079401;28;20032;-50
2023/06/18 07:11:40;;;;;;;9.05;7.20;;;19.60;99.90;;;;;;5070921;28;20013;-50
2023/06/18 07:14:06;;;;;;;8.38;7.28;;;19.80;99.90;;;;;;5063028;28;20370;-46
2023/06/18 07:16:32;;;;;;;10.30;7.40;;;19.80;99.90;;;;;;5070434;28;20096;-46
2023/06/18 07:18:57;;;;;;;7.97;7.18;;;20.00;99.90;;;;;;5079319;28;20131;-48
2023/06/18 07:21:23;;;;;;;8.52;7.35;;;20.00;99.90;;;;;;5084225;28;20178;-45
2023/06/18 07:23:48;;;;;;;7.85;7.05;;;20.10;99.90;;;;;;5070587;28;20032;-45
2023/06/18 07:26:14;;;;;;;8.82;6.70;;;20.30;99.90;;;;;;5076488;28;20524;-45
2023/06/18 07:28:39;;;;;;;7.65;6.88;;;20.30;99.90;;;;;;5086560;28;20102;-47
2023/06/18 07:31:05;;;;;;;7.82;6.60;;;20.50;99.90;;;;;;5072943;28;20058;-46
2023/06/18 07:33:31;;;;;;;7.35;6.47;;;20.60;99.90;;;;;;5082707;28;20047;-47
2023/06/18 07:35:57;;;;;;;8.45;6.38;;;20.70;99.90;;;;;;5070095;28;20109;-46
2023/06/18 07:38:22;;;;;;;6.95;6.25;;;20.80;99.90;;;;;;5063144;28;20055;-46
2023/06/18 07:40:48;;;;;;;12.02;7.03;;;21.00;99.90;;;;;;5068010;28;20036;-46
2023/06/18 07:43:14;;;;;;;7.07;6.43;;;21.20;99.90;;;;;;5069734;28;20029;-45
2023/06/18 07:45:39;;;;;;;7.80;6.65;;;21.30;99.90;;;;;;5070007;28;20028;-46
2023/06/18 07:48:05;;;;;;;8.63;7.45;;;21.40;99.90;;;;;;5069536;28;20078;-47
2023/06/18 07:50:31;;;;;;;8.75;7.10;;;21.60;98.80;;;;;;5070464;28;20052;-46
2023/06/18 07:52:56;;;;;;;11.63;7.20;;;21.80;98.30;;;;;;5070567;28;20032;-47
2023/06/18 07:55:23;;;;;;;9.00;8.13;;;21.90;97.30;;;;;;5075428;28;20028;-45
2023/06/18 07:57:48;;;;;;;7.80;6.95;;;22.10;95.90;;;;;;5089042;28;20096;-47
2023/06/18 08:00:14;;;;;;;7.60;6.80;;;22.20;96.40;;;;;;5070967;28;20107;-46
2023/06/18 08:02:40;;;;;;;6.50;5.57;;;22.30;95.80;;;;;;5078135;28;20028;-46
2023/06/18 08:05:07;;;;;;;7.32;6.50;;;22.70;95.60;;;;;;5090283;28;20023;-47
2023/06/18 08:07:32;;;;;;;6.75;6.15;;;23.00;94.70;;;;;;5075014;28;20490;-46
2023/06/18 08:09:58;;;;;;;6.25;5.30;;;23.30;94.80;;;;;;5069930;28;20078;-46
2023/06/18 08:12:23;;;;;;;5.80;5.22;;;23.90;93.70;;;;;;5068832;28;20052;-47
2023/06/18 08:14:49;;;;;;;7.07;5.90;;;24.80;93.40;;;;;;5068635;28;20409;-46
2023/06/18 08:17:17;;;;;;;5.68;5.18;;;26.10;91.10;;;;;;5072375;28;20070;-48
2023/06/18 08:19:47;;;;;;;5.70;4.65;;;27.40;87.60;;;;;;5072331;28;20040;-49
2023/06/18 08:22:14;;;;;;;5.50;4.85;;;28.40;82.50;;;;;;5074001;28;20112;-48
2023/06/18 08:24:40;;;;;;;6.38;5.15;;;29.50;77.10;;;;;;5065555;28;20478;-50
2023/06/18 08:27:06;;;;;;;5.82;5.15;;;30.30;73.30;;;;;;5087091;28;20053;-52
2023/06/18 08:29:38;;;;;;;5.07;4.63;;;31.20;68.50;;;;;;5074363;28;20205;-50
2023/06/18 08:32:06;;;;;;;5.40;4.60;;;31.70;66.40;;;;;;5087917;28;20419;-51
2023/06/18 08:34:33;;;;;;;5.10;4.60;;;32.20;65.10;;;;;;5088423;28;20027;-48
2023/06/18 08:36:59;;;;;;;5.18;4.78;;;32.60;62.90;;;;;;5072134;28;20025;-50
2023/06/18 08:39:28;;;;;;;4.70;4.18;;;33.10;62.20;;;;;;5089334;28;20484;-51
2023/06/18 08:41:54;;;;;;;4.85;4.43;;;33.70;60.30;;;;;;5087950;28;20020;-51
2023/06/18 08:44:25;;;;;;;6.03;4.88;;;34.40;58.40;;;;;;5068569;28;20035;-50
2023/06/18 08:47:00;;;;;;;4.93;4.53;;;34.30;57.90;;;;;;5086445;28;20046;-49
2023/06/18 08:49:29;;;;;;;5.35;4.85;;;34.60;57.00;;;;;;5074224;28;20067;-52
2023/06/18 08:51:58;;;;;;;4.95;4.50;;;35.10;54.70;;;;;;5084605;28;20031;-51
2023/06/18 08:54:32;;;;;;;5.43;4.40;;;34.60;55.10;;;;;;5074644;28;20049;-50
2023/06/18 08:57:16;;;;;;;5.57;4.68;;;34.90;54.80;;;;;;5070238;28;20393;-51
2023/06/18 08:59:43;;;;;;;7.80;4.15;;;35.10;54.70;;;;;;5069173;28;20013;-51
2023/06/18 09:02:14;;;;;;;8.73;4.63;;;35.30;53.80;;;;;;5084333;28;20077;-51
2023/06/18 09:04:40;;;;;;;4.82;4.35;;;35.60;54.20;;;;;;5068781;28;20021;-50
2023/06/18 09:07:07;;;;;;;5.70;4.03;;;36.20;52.70;;;;;;5076874;28;20024;-51
2023/06/18 09:09:35;;;;;;;4.68;4.38;;;36.20;51.80;;;;;;5068798;28;20025;-50
2023/06/18 09:12:01;;;;;;;4.65;4.25;;;36.80;51.20;;;;;;5068505;28;20147;-51
2023/06/18 09:14:27;;;;;;;4.25;3.92;;;36.60;49.60;;;;;;5068629;28;20108;-51
2023/06/18 09:16:54;;;;;;;7.93;4.05;;;36.60;49.60;;;;;;5084458;28;20024;-51
2023/06/18 09:19:21;;;;;;;4.93;4.40;;;36.70;48.70;;;;;;5076170;28;20055;-49
2023/06/18 09:21:49;;;;;;;4.30;4.00;;;36.80;49.80;;;;;;5067672;28;20073;-49
2023/06/18 09:24:18;;;;;;;4.28;3.97;;;36.80;48.90;;;;;;5072670;28;20107;-50
2023/06/18 09:26:45;;;;;;;6.22;4.13;;;37.00;48.90;;;;;;5072101;28;20032;-50
2023/06/18 09:29:14;;;;;;;4.10;3.80;;;37.60;48.30;;;;;;5076194;28;20056;-51
2023/06/18 09:31:46;;;;;;;4.53;4.13;;;37.60;48.70;;;;;;5069231;28;20051;-56
2023/06/18 09:34:19;;;;;;;4.32;3.85;;;37.50;47.60;;;;;;5067939;28;20103;-55
2023/06/18 09:36:50;;;;;;;5.22;4.75;;;38.10;47.20;;;;;;5065771;28;20159;-55
2023/06/18 09:39:25;;;;;;;4.50;4.10;;;37.90;47.30;;;;;;5060406;28;20070;-55
2023/06/18 09:41:53;;;;;;;5.50;4.30;;;38.10;46.70;;;;;;5068573;28;20028;-56
2023/06/18 09:44:21;;;;;;;4.93;4.37;;;37.10;47.20;;;;;;5067174;28;20028;-55
2023/06/18 09:46:48;;;;;;;5.00;4.53;;;37.20;46.70;;;;;;5067925;28;20024;-55
2023/06/18 09:49:16;;;;;;;4.25;3.85;;;36.70;46.40;;;;;;5052617;28;20437;-55
2023/06/18 09:51:45;;;;;;;4.57;4.17;;;37.00;46.50;;;;;;5066961;28;20032;-55
2023/06/18 09:54:11;;;;;;;4.50;4.03;;;37.00;46.10;;;;;;5067627;28;20020;-55
2023/06/18 09:56:54;;;;;;;5.13;4.28;;;37.50;47.10;;;;;;5067434;28;20035;-50
2023/06/18 09:59:19;;;;;;;4.13;3.70;;;37.90;44.80;;;;;;5076155;28;20028;-48
2023/06/18 10:01:48;;;;;;;5.13;3.92;;;37.90;45.60;;;;;;5079822;28;20028;-51
2023/06/18 10:04:14;;;;;;;4.03;3.72;;;37.60;44.80;;;;;;5063359;28;20046;-50
2023/06/18 10:06:49;;;;;;;5.78;4.05;;;38.00;45.20;;;;;;5085114;28;20032;-50
2023/06/18 10:09:17;;;;;;;4.90;4.50;;;38.00;45.20;;;;;;5076343;28;20579;-50
2023/06/18 10:11:45;;;;;;;5.32;4.13;;;37.60;45.70;;;;;;5066812;28;20079;-49
2023/06/18 10:14:12;;;;;;;5.53;4.07;;;38.20;45.90;;;;;;5066417;28;20248;-50
2023/06/18 10:16:45;;;;;;;4.30;3.90;;;38.60;43.80;;;;;;5066376;28;20029;-51
2023/06/18 10:19:23;;;;;;;4.43;4.10;;;38.60;43.90;;;;;;5078204;28;20035;-51
2023/06/18 10:22:05;;;;;;;4.18;3.88;;;39.00;43.20;;;;;;5080284;28;20040;-51
2023/06/18 10:24:50;;;;;;;5.80;4.55;;;39.00;44.50;;;;;;5067908;28;20032;-51
2023/06/18 10:27:16;;;;;;;4.45;3.53;;;38.70;43.80;;;;;;5057872;28;20085;-50
2023/06/18 10:29:42;;;;;;;4.40;4.07;;;38.70;44.10;;;;;;5076300;28;20032;-48
2023/06/18 10:32:09;;;;;;;4.25;3.70;;;39.20;43.30;;;;;;5076272;28;20027;-49
2023/06/18 10:34:37;;;;;;;4.22;3.83;;;38.70;43.70;;;;;;5064483;28;20028;-50
2023/06/18 10:37:03;;;;;;;4.30;3.58;;;38.50;41.90;;;;;;5064241;28;20432;-52
2023/06/18 10:39:30;;;;;;;4.43;4.03;;;39.20;42.40;;;;;;5067619;28;20493;-52
2023/06/18 10:42:10;;;;;;;4.85;3.83;;;39.50;41.70;;;;;;5084997;28;20032;-51
2023/06/18 10:44:57;;;;;;;8.13;3.70;;;39.60;42.30;;;;;;5073356;28;20024;-55
2023/06/18 10:47:31;;;;;;;4.07;3.70;;;39.50;42.00;;;;;;5065668;28;20032;-51
2023/06/18 10:50:03;;;;;;;5.35;4.15;;;39.20;40.80;;;;;;5075569;28;20024;-51
2023/06/18 10:52:36;;;;;;;5.18;4.22;;;38.10;42.10;;;;;;5067346;28;20017;-47
2023/06/18 10:55:26;;;;;;;4.20;3.80;;;38.10;42.90;;;;;;5067727;28;20048;-51
2023/06/18 10:58:05;;;;;;;4.25;3.85;;;37.80;42.70;;;;;;5079390;28;20108;-51
2023/06/18 11:00:40;;;;;;;4.15;3.80;;;38.80;41.80;;;;;;5072755;28;20028;-51
2023/06/18 11:03:15;;;;;;;3.80;3.50;;;39.00;41.90;;;;;;5065826;28;20052;-49
2023/06/18 11:05:49;;;;;;;4.32;3.30;;;39.80;40.10;;;;;;5073409;28;20024;-51
2023/06/18 11:08:23;;;;;;;3.78;3.47;;;39.30;39.80;;;;;;5070950;28;20328;-50
2023/06/18 11:10:52;;;;;;;4.47;3.30;;;38.90;41.50;;;;;;5082030;28;20120;-52
2023/06/18 11:13:30;;;;;;;4.05;3.50;;;39.20;39.80;;;;;;5087582;28;20039;-51
2023/06/18 11:16:02;;;;;;;6.75;3.53;;;40.00;39.60;;;;;;5070267;28;20020;-50
2023/06/18 11:18:29;;;;;;;4.63;3.17;;;40.10;38.50;;;;;;5070735;28;20495;-49
2023/06/18 11:20:56;;;;;;;3.28;3.05;;;40.40;39.90;;;;;;5079011;28;20024;-50
2023/06/18 11:23:23;;;;;;;4.22;3.50;;;40.80;39.60;;;;;;5074880;28;20356;-51
2023/06/18 11:25:50;;;;;;;4.05;3.75;;;40.80;40.30;;;;;;5074343;28;20383;-51
2023/06/18 11:28:17;;;;;;;3.53;3.22;;;40.40;38.30;;;;;;5073649;28;20020;-51
2023/06/18 11:30:51;;;;;;;3.72;3.25;;;40.10;39.00;;;;;;5090966;28;20093;-51
2023/06/18 11:33:25;;;;;;;3.72;3.30;;;39.90;38.90;;;;;;5090325;28;20035;-51
2023/06/18 11:36:05;;;;;;;3.55;3.25;;;39.90;37.90;;;;;;5073816;28;20033;-51
2023/06/18 11:38:32;;;;;;;3.70;3.40;;;39.70;38.90;;;;;;5077606;28;20470;-51
2023/06/18 11:41:01;;;;;;;4.03;3.47;;;39.10;39.80;;;;;;5079387;28;20457;-51
2023/06/18 11:43:50;;;;;;;4.10;3.72;;;38.30;39.10;;;;;;5065301;28;20025;-51
2023/06/18 11:46:37;;;;;;;3.72;3.42;;;38.20;39.20;;;;;;5068014;28;20124;-51
2023/06/18 11:49:03;;;;;;;4.30;3.42;;;38.50;40.20;;;;;;5070257;28;20141;-51
2023/06/18 11:51:30;;;;;;;3.88;3.58;;;39.10;40.00;;;;;;5070262;28;20034;-50
2023/06/18 11:53:57;;;;;;;3.70;3.40;;;38.90;39.70;;;;;;5069395;28;20492;-51
2023/06/18 11:56:28;;;;;;;4.03;3.55;;;38.70;39.60;;;;;;5070004;28;20021;-51
2023/06/18 11:58:55;;;;;;;4.07;3.63;;;38.00;40.40;;;;;;5070341;28;20087;-51
2023/06/18 12:01:26;;;;;;;4.68;3.53;;;38.40;41.10;;;;;;5061723;28;20024;-50
2023/06/18 12:04:07;;;;;;;7.80;4.00;;;38.30;40.40;;;;;;5067145;28;20024;-51
2023/06/18 12:06:33;;;;;;;4.47;3.47;;;37.80;41.70;;;;;;5075670;28;20095;-51
2023/06/18 12:09:07;;;;;;;3.88;3.58;;;37.30;41.80;;;;;;5079955;28;20451;-50
2023/06/18 12:12:02;;;;;;;4.15;3.75;;;36.70;42.60;;;;;;5076284;28;20024;-51
2023/06/18 12:14:47;;;;;;;4.38;3.80;;;36.70;42.40;;;;;;5079766;28;20020;-49
2023/06/18 12:17:31;;;;;;;5.55;4.10;;;36.40;42.30;;;;;;5072765;28;20024;-51
2023/06/18 12:20:04;;;;;;;4.93;4.43;;;36.00;43.00;;;;;;5069008;28;20305;-51
2023/06/18 12:22:30;;;;;;;4.03;3.65;;;35.40;41.90;;;;;;5066979;28;20056;-47
2023/06/18 12:24:56;;;;;;;6.88;3.95;;;34.90;43.00;;;;;;5069512;28;20053;-47
2023/06/18 12:27:25;;;;;;;6.25;4.22;;;34.20;42.30;;;;;;5068940;28;20020;-47
2023/06/18 12:29:51;;;;;;;4.80;4.35;;;33.70;41.80;;;;;;5069310;28;20070;-49
2023/06/18 12:32:17;;;;;;;4.88;4.40;;;33.50;44.00;;;;;;5070656;28;20016;-47
2023/06/18 12:34:43;;;;;;;4.70;4.03;;;33.60;43.20;;;;;;5070880;28;20020;-53
2023/06/18 12:37:10;;;;;;;5.30;3.90;;;33.80;44.30;;;;;;5069645;28;20044;-51
2023/06/18 12:39:38;;;;;;;4.18;3.78;;;33.40;42.50;;;;;;5068582;28;20032;-50